»·PEaware :: BAW218 KDEN-EGLL

BAW218 :: KDEN-EGLL

FLIGHT INFORMATION

Flight Status: Arrived
Operator:
British Airways
More flights by this operator :: More flights under this callsign
Pilot: Drew L. (13237)
Aircraft: BOEING 747-400 (WINGLETS)
(B744)
More flights by this aircraft type
Origin: KDEN Denver Intl
United States
Destination: EGLL Heathrow
United Kingdom
More flights between these airports :: More routes between these airports
Route: YOKES5 BFF ABR 50N092W/N0504F350 ELVEL PIGLA MCKEE/M086F350 AVUTI 58N050W 59N040W 59N030W 58N020W AGORI OSBOX MIMKU/N0497F350 KELLY UL10 WAL UY53 NUGRA BNN1B
File this flight plan on PilotEdge
Remarks: PBN / A1B1D1O1S2 DOF / 180530 REG / N484SB EET / KZMP0039 CZWG0125 CZUL0234 CZQX0336 58N050W0427 BGGL0445 CZQX0452 59N040W0503 EGGX0540 58N020W0619 EGPX0702 EISN0711 EGPX0715 EGTT0725 OPR / BAW PER / D RALT / CYYR BIKF RMK / TCAS SIMBRIEF
Altitude:
(Current/Filed)
33,000ft
Speed:
(Current/Filed)
506kts
Departed: 29-May-18 11:25 PM
Arrived: 30-May-18 08:54 AM
Distance/Time
Traveled:
4045nm/9:29
Distance/Time
To Go:
Arrived

Flight Plot

Page will automatically refresh every two minutes.

Flight plan parsing failed; only flown route is shown


Map Options




Map Legend


Flown Route
Filed Route
Departure Airport
Arrival Airport
Navaid (VOR, NDB)
Fix

Horizontal Profiles

Position Reports

Time Latitude Longitude Heading Altitude Ground
Speed
29-May-18 22:53 39.854513 -104.674987 185 5443ft 0kts
29-May-18 22:54 39.854513 -104.674987 185 5443ft 0kts
29-May-18 22:55 39.854513 -104.674987 185 5443ft 0kts
29-May-18 22:56 39.854513 -104.674987 185 5443ft 0kts
29-May-18 22:57 39.854513 -104.674987 185 5443ft 0kts
29-May-18 22:58 39.854513 -104.674987 185 5443ft 0kts
29-May-18 22:59 39.854513 -104.674987 185 5443ft 0kts
29-May-18 23:00 39.854513 -104.674987 185 5443ft 0kts
29-May-18 23:01 39.854513 -104.674987 185 5443ft 0kts
29-May-18 23:02 39.854513 -104.674987 185 5443ft 0kts
29-May-18 23:03 39.854513 -104.674987 185 5443ft 0kts
29-May-18 23:04 39.854513 -104.674987 185 5444ft 0kts
29-May-18 23:05 39.854513 -104.674987 185 5444ft 0kts
29-May-18 23:06 39.854513 -104.674987 185 5444ft 0kts
29-May-18 23:07 39.854513 -104.674987 185 5444ft 0kts
29-May-18 23:08 39.854513 -104.674987 185 5444ft 0kts
29-May-18 23:09 39.854513 -104.674987 185 5444ft 0kts
29-May-18 23:10 39.854513 -104.674987 185 5444ft 0kts
29-May-18 23:11 39.854513 -104.674987 185 5444ft 0kts
29-May-18 23:12 39.854513 -104.674987 185 5444ft 0kts
29-May-18 23:13 39.854896 -104.674985 164 5444ft 2kts
29-May-18 23:14 39.855257 -104.675454 90 5444ft 2kts
29-May-18 23:15 39.855259 -104.675727 90 5444ft 0kts
29-May-18 23:16 39.855259 -104.675727 90 5444ft 0kts
29-May-18 23:17 39.855259 -104.675727 90 5444ft 0kts
29-May-18 23:18 39.855259 -104.675727 90 5444ft 0kts
29-May-18 23:19 39.855259 -104.675727 90 5444ft 0kts
29-May-18 23:20 39.855259 -104.675727 90 5444ft 0kts
29-May-18 23:21 39.855258 -104.675557 90 5444ft 5kts
29-May-18 23:22 39.855903 -104.669032 88 5444ft 22kts
29-May-18 23:23 39.857198 -104.662352 359 5444ft 19kts
29-May-18 23:24 39.861114 -104.660933 88 5444ft 10kts
29-May-18 23:25 39.849222 -104.660268 180 5444ft 121kts
29-May-18 23:26 39.803681 -104.660580 169 6950ft 174kts
29-May-18 23:27 39.769895 -104.604454 108 7765ft 225kts
29-May-18 23:28 39.780093 -104.517057 68 8753ft 278kts
29-May-18 23:29 39.821187 -104.428939 33 10911ft 286kts
29-May-18 23:30 39.896780 -104.397499 18 12585ft 315kts
29-May-18 23:31 39.999740 -104.379757 356 11374ft 428kts
29-May-18 23:32 40.108615 -104.427342 324 11359ft 419kts
29-May-18 23:33 40.208249 -104.501873 346 14303ft 428kts
29-May-18 23:34 40.328166 -104.475646 25 16650ft 469kts
29-May-18 23:35 40.436386 -104.372146 33 18926ft 490kts
29-May-18 23:36 40.548113 -104.265057 33 21138ft 502kts
29-May-18 23:37 40.672800 -104.182906 18 23016ft 507kts
29-May-18 23:38 40.804012 -104.109471 20 24617ft 518kts
29-May-18 23:39 40.936164 -104.034527 20 26735ft 516kts
29-May-18 23:40 41.067869 -103.959386 20 28712ft 512kts
29-May-18 23:41 41.198137 -103.885108 19 30691ft 508kts
29-May-18 23:42 41.327927 -103.810792 19 32289ft 506kts
29-May-18 23:43 41.456797 -103.736537 19 32980ft 505kts
29-May-18 23:44 41.585401 -103.662098 19 32967ft 504kts
29-May-18 23:45 41.714471 -103.587265 19 32954ft 505kts
29-May-18 23:46 41.843013 -103.512034 20 32949ft 504kts
29-May-18 23:47 41.956634 -103.401265 41 32947ft 514kts
29-May-18 23:48 42.057596 -103.264069 41 32932ft 514kts
29-May-18 23:49 42.158353 -103.128287 40 32905ft 512kts
29-May-18 23:50 42.259621 -102.992670 41 32892ft 511kts
29-May-18 23:51 42.359973 -102.856953 41 32887ft 510kts
29-May-18 23:52 42.459919 -102.721033 41 32874ft 510kts
29-May-18 23:53 42.559948 -102.584329 41 32867ft 509kts
29-May-18 23:54 42.659436 -102.447707 41 32853ft 509kts
29-May-18 23:55 42.758686 -102.310748 41 32849ft 509kts
29-May-18 23:56 42.858071 -102.172937 41 32849ft 509kts
29-May-18 23:57 42.956921 -102.035197 41 32845ft 508kts
29-May-18 23:58 43.055835 -101.896708 42 32836ft 512kts
29-May-18 23:59 43.155365 -101.756635 42 32820ft 512kts
30-May-18 00:00 43.254362 -101.616631 42 32804ft 512kts
30-May-18 00:01 43.353650 -101.475514 42 32777ft 513kts
30-May-18 00:02 43.452635 -101.334116 43 32763ft 514kts
30-May-18 00:03 43.551709 -101.191888 43 32756ft 516kts
30-May-18 00:04 43.651309 -101.048166 44 32745ft 518kts
30-May-18 00:05 43.750881 -100.903744 45 32741ft 521kts
30-May-18 00:06 43.850941 -100.757881 46 32733ft 525kts
30-May-18 00:07 43.951757 -100.610126 47 32719ft 527kts
30-May-18 00:08 44.052579 -100.461592 48 32709ft 530kts
30-May-18 00:09 44.153478 -100.312104 48 32696ft 531kts
30-May-18 00:10 44.254735 -100.161304 49 32693ft 532kts
30-May-18 00:11 44.355462 -100.010483 49 32694ft 531kts
30-May-18 00:12 44.456509 -99.858373 49 32694ft 533kts
30-May-18 00:13 44.557210 -99.705938 50 32698ft 533kts
30-May-18 00:14 44.657607 -99.553137 50 32700ft 533kts
30-May-18 00:15 44.758192 -99.399202 51 32702ft 534kts
30-May-18 00:16 44.858299 -99.245150 51 32715ft 534kts
30-May-18 00:17 44.958312 -99.090380 52 32715ft 534kts
30-May-18 00:18 45.058509 -98.934458 52 32713ft 535kts
30-May-18 00:19 45.158138 -98.778546 52 32712ft 535kts
30-May-18 00:20 45.258002 -98.622135 53 32710ft 536kts
30-May-18 00:21 45.357646 -98.463879 53 32710ft 536kts
30-May-18 00:22 45.461827 -98.311411 46 32710ft 542kts
30-May-18 00:23 45.577022 -98.170756 46 32712ft 545kts
30-May-18 00:24 45.691306 -98.028749 46 32716ft 545kts
30-May-18 00:25 45.805798 -97.887030 46 32719ft 545kts
30-May-18 00:26 45.920231 -97.743552 46 32720ft 545kts
30-May-18 00:27 46.033864 -97.600132 46 32722ft 544kts
30-May-18 00:28 46.147354 -97.456051 46 32721ft 544kts
30-May-18 00:29 46.260928 -97.311034 46 32726ft 543kts
30-May-18 00:30 46.373760 -97.166144 46 32730ft 543kts
30-May-18 00:31 46.486238 -97.020869 46 32733ft 542kts
30-May-18 00:32 46.598773 -96.874682 46 32740ft 541kts
30-May-18 00:33 46.710630 -96.728525 46 32729ft 541kts
30-May-18 00:34 46.822639 -96.581319 46 32730ft 541kts
30-May-18 00:35 46.934077 -96.434001 45 32733ft 541kts
30-May-18 00:36 47.045217 -96.286208 45 32749ft 540kts
30-May-18 00:37 47.156531 -96.137322 45 32756ft 540kts
30-May-18 00:38 47.267269 -95.988304 45 32758ft 540kts
30-May-18 00:39 47.359191 -95.863953 45 32760ft 538kts
30-May-18 00:40 47.469566 -95.713822 45 32765ft 538kts
30-May-18 00:41 47.579419 -95.563501 45 32762ft 539kts
30-May-18 00:42 47.689006 -95.412642 45 32767ft 538kts
30-May-18 00:43 47.816735 -95.235652 45 32771ft 537kts
30-May-18 00:44 47.925538 -95.083905 45 32773ft 536kts
30-May-18 00:45 48.034220 -94.931390 45 32772ft 535kts
30-May-18 00:46 48.124349 -94.804226 44 32773ft 535kts
30-May-18 00:47 48.232170 -94.651243 44 32770ft 534kts
30-May-18 00:48 48.339997 -94.497311 44 32771ft 533kts
30-May-18 00:49 48.447078 -94.343505 44 32770ft 532kts
30-May-18 00:50 48.553795 -94.189277 44 32775ft 532kts
30-May-18 00:51 48.660770 -94.033720 45 32778ft 533kts
30-May-18 00:52 48.767178 -93.878021 44 32784ft 532kts
30-May-18 00:53 48.873261 -93.721839 44 32788ft 533kts
30-May-18 00:54 48.979713 -93.564113 44 32788ft 533kts
30-May-18 00:55 49.085680 -93.406140 44 32786ft 534kts
30-May-18 00:56 49.191613 -93.247205 44 32796ft 534kts
30-May-18 00:57 49.297695 -93.087032 45 32795ft 534kts
30-May-18 00:58 49.403150 -92.926784 44 32793ft 534kts
30-May-18 00:59 49.508584 -92.765527 45 32790ft 534kts
30-May-18 01:00 49.613324 -92.604322 44 32794ft 532kts
30-May-18 01:01 49.717753 -92.442544 44 32794ft 533kts
30-May-18 01:02 49.822758 -92.279696 44 32798ft 533kts
30-May-18 01:03 49.926691 -92.116014 45 32804ft 533kts
30-May-18 01:04 50.028181 -91.948444 50 32811ft 533kts
30-May-18 01:05 50.120302 -91.766802 51 32809ft 533kts
30-May-18 01:06 50.212457 -91.585485 51 32810ft 534kts
30-May-18 01:07 50.305917 -91.403996 50 32812ft 535kts
30-May-18 01:08 50.398361 -91.221508 51 32816ft 536kts
30-May-18 01:09 50.490574 -91.037975 51 32820ft 536kts
30-May-18 01:10 50.582924 -90.852848 51 32825ft 537kts
30-May-18 01:11 50.674634 -90.667698 51 32830ft 537kts
30-May-18 01:12 50.766183 -90.481549 51 32835ft 538kts
30-May-18 01:13 50.858179 -90.294349 51 32837ft 538kts
30-May-18 01:14 50.949075 -90.105948 51 32837ft 539kts
30-May-18 01:15 51.036628 -89.912431 56 32838ft 542kts
30-May-18 01:16 51.116731 -89.708224 56 32838ft 544kts
30-May-18 01:17 51.197225 -89.504347 55 32837ft 545kts
30-May-18 01:18 51.278917 -89.300136 56 32835ft 545kts
30-May-18 01:19 51.359418 -89.095032 56 32835ft 545kts
30-May-18 01:20 51.439492 -88.889081 56 32832ft 546kts
30-May-18 01:21 51.519570 -88.681418 56 32812ft 547kts
30-May-18 01:22 51.599189 -88.473257 56 32803ft 548kts
30-May-18 01:23 51.678696 -88.263688 56 32796ft 550kts
30-May-18 01:24 51.758264 -88.052223 56 32790ft 551kts
30-May-18 01:25 51.837357 -87.840266 56 32786ft 552kts
30-May-18 01:26 51.916051 -87.627607 56 32784ft 551kts
30-May-18 01:27 51.994485 -87.413867 56 32784ft 550kts
30-May-18 01:28 52.072502 -87.199444 56 32786ft 554kts
30-May-18 01:29 52.150671 -86.982779 56 32788ft 554kts
30-May-18 01:30 52.228257 -86.765869 56 32785ft 555kts
30-May-18 01:31 52.305366 -86.548419 56 32784ft 554kts
30-May-18 01:32 52.382290 -86.329603 56 32783ft 554kts
30-May-18 01:33 52.458578 -86.110684 56 32761ft 554kts
30-May-18 01:34 52.534448 -85.891039 56 32755ft 554kts
30-May-18 01:35 52.610197 -85.669802 56 32752ft 554kts
30-May-18 01:36 52.685319 -85.448428 56 32751ft 554kts
30-May-18 01:37 52.760147 -85.225918 56 32777ft 556kts
30-May-18 01:38 52.834850 -85.001799 56 32782ft 556kts
30-May-18 01:39 52.908861 -84.777693 56 32784ft 555kts
30-May-18 01:40 52.982736 -84.551971 56 32782ft 556kts
30-May-18 01:41 53.055960 -84.326149 56 32786ft 556kts
30-May-18 01:42 53.128841 -84.099296 56 32790ft 557kts
30-May-18 01:43 53.201792 -83.870055 56 33831ft 558kts
30-May-18 01:44 53.273948 -83.641206 56 35193ft 556kts
30-May-18 01:45 53.345236 -83.412967 56 36293ft 554kts
30-May-18 01:46 53.416074 -83.183992 56 36802ft 552kts
30-May-18 01:47 53.486123 -82.955381 56 36801ft 551kts
30-May-18 01:48 53.555709 -82.726197 56 36805ft 550kts
30-May-18 01:49 53.624482 -82.497395 56 36806ft 546kts
30-May-18 01:50 53.692618 -82.268534 56 36816ft 547kts
30-May-18 01:51 53.760613 -82.037954 56 36810ft 547kts
30-May-18 01:52 53.827960 -81.807334 56 36811ft 547kts
30-May-18 01:53 53.894875 -81.575926 57 36813ft 547kts
30-May-18 01:54 53.961397 -81.343584 57 36815ft 545kts
30-May-18 01:55 54.027143 -81.111654 57 36818ft 547kts
30-May-18 01:56 54.092703 -80.878088 57 36820ft 547kts
30-May-18 01:57 54.157789 -80.643842 57 36824ft 545kts
30-May-18 01:58 54.222547 -80.410733 56 36857ft 543kts
30-May-18 01:59 54.285826 -80.176996 57 36865ft 542kts
30-May-18 02:00 54.348344 -79.941156 59 36873ft 543kts
30-May-18 02:01 54.405742 -79.701698 60 36877ft 545kts
30-May-18 02:02 54.463120 -79.460161 60 36881ft 544kts
30-May-18 02:03 54.521628 -79.220903 60 36895ft 543kts
30-May-18 02:04 54.578735 -78.980447 60 36894ft 543kts
30-May-18 02:05 54.635251 -78.738899 60 36889ft 541kts
30-May-18 02:06 54.690950 -78.498009 60 36894ft 541kts
30-May-18 02:07 54.746099 -78.256762 60 36886ft 539kts
30-May-18 02:08 54.800855 -78.014465 61 36877ft 539kts
30-May-18 02:09 54.854905 -77.772520 61 36872ft 537kts
30-May-18 02:10 54.908348 -77.530467 61 36872ft 537kts
30-May-18 02:11 54.961496 -77.286950 62 36872ft 537kts
30-May-18 02:12 55.013975 -77.043633 62 36877ft 537kts
30-May-18 02:13 55.066102 -76.799023 62 36882ft 537kts
30-May-18 02:14 55.117557 -76.554652 62 36890ft 537kts
30-May-18 02:15 55.168531 -76.309611 63 36898ft 537kts
30-May-18 02:16 55.219233 -76.062860 63 36907ft 538kts
30-May-18 02:17 55.269234 -75.816493 63 36922ft 536kts
30-May-18 02:18 55.318622 -75.570073 64 36888ft 536kts
30-May-18 02:19 55.367701 -75.322095 64 36887ft 536kts
30-May-18 02:20 55.416085 -75.074491 64 36895ft 535kts
30-May-18 02:21 55.463867 -74.826806 65 36903ft 535kts
30-May-18 02:22 55.511337 -74.577526 65 36910ft 535kts
30-May-18 02:23 55.558183 -74.328262 65 36916ft 535kts
30-May-18 02:24 55.604655 -74.077695 65 36921ft 536kts
30-May-18 02:25 55.650495 -73.827201 65 36925ft 535kts
30-May-18 02:26 55.695743 -73.576567 66 36971ft 534kts
30-May-18 02:27 55.740623 -73.324540 66 36991ft 534kts
30-May-18 02:28 55.784804 -73.072986 66 36993ft 534kts
30-May-18 02:29 55.828427 -72.821115 66 36995ft 533kts
30-May-18 02:30 55.871663 -72.567921 66 36997ft 533kts
30-May-18 02:31 55.914275 -72.314786 66 37000ft 534kts
30-May-18 02:32 55.956559 -72.059927 67 37002ft 535kts
30-May-18 02:33 55.998210 -71.805147 67 37039ft 535kts
30-May-18 02:34 56.039372 -71.549627 67 37048ft 536kts
30-May-18 02:35 56.080138 -71.292708 67 37049ft 536kts
30-May-18 02:36 56.120308 -71.035626 67 37049ft 537kts
30-May-18 02:37 56.159918 -70.778197 67 37050ft 536kts
30-May-18 02:38 56.199061 -70.519748 67 37053ft 535kts
30-May-18 02:39 56.237500 -70.261928 67 37054ft 535kts
30-May-18 02:40 56.275337 -70.004028 68 37055ft 534kts
30-May-18 02:41 56.312784 -69.744593 68 37024ft 534kts
30-May-18 02:42 56.349581 -69.485398 68 37022ft 534kts
30-May-18 02:43 56.385803 -69.225959 68 37022ft 534kts
30-May-18 02:44 56.421644 -68.964839 68 37021ft 535kts
30-May-18 02:45 56.456765 -68.704513 68 37020ft 534kts
30-May-18 02:46 56.491404 -68.443232 69 37020ft 533kts
30-May-18 02:47 56.525330 -68.182743 69 36994ft 531kts
30-May-18 02:48 56.558676 -67.922075 69 36994ft 531kts
30-May-18 02:49 56.591534 -67.660493 69 36993ft 531kts
30-May-18 02:50 56.624539 -67.398765 70 36992ft 533kts
30-May-18 02:51 56.655751 -67.136154 70 36992ft 533kts
30-May-18 02:52 56.687623 -66.872573 69 36984ft 530kts
30-May-18 02:53 56.719566 -66.610157 70 36975ft 532kts
30-May-18 02:54 56.750991 -66.347183 69 36969ft 531kts
30-May-18 02:55 56.783925 -66.084418 70 36966ft 531kts
30-May-18 02:56 56.814954 -65.821353 70 36963ft 530kts
30-May-18 02:57 56.845321 -65.558119 71 36947ft 531kts
30-May-18 02:58 56.875266 -65.292855 71 36944ft 531kts
30-May-18 02:59 56.904511 -65.028418 71 36966ft 532kts
30-May-18 03:00 56.933402 -64.762339 71 36974ft 532kts
30-May-18 03:01 56.961574 -64.496804 71 36970ft 530kts
30-May-18 03:02 56.984566 -64.275259 72 36968ft 532kts
30-May-18 03:03 57.011847 -64.007522 72 36930ft 533kts
30-May-18 03:04 57.038383 -63.741111 72 36934ft 531kts
30-May-18 03:05 57.064425 -63.473883 73 36935ft 531kts
30-May-18 03:06 57.089855 -63.205922 73 36942ft 530kts
30-May-18 03:07 57.114638 -62.939020 73 36948ft 530kts
30-May-18 03:08 57.138854 -62.671795 74 36964ft 530kts
30-May-18 03:09 57.162571 -62.403571 74 36973ft 528kts
30-May-18 03:10 57.185553 -62.136133 75 36984ft 529kts
30-May-18 03:11 57.208098 -61.867674 75 36993ft 526kts
30-May-18 03:12 57.229874 -61.600375 76 36996ft 529kts
30-May-18 03:13 57.251183 -61.332118 76 36995ft 528kts
30-May-18 03:14 57.271958 -61.062964 77 36994ft 528kts
30-May-18 03:15 57.292083 -60.794506 77 36991ft 528kts
30-May-18 03:16 57.311644 -60.525658 78 36989ft 528kts
30-May-18 03:17 57.330685 -60.255736 78 36987ft 528kts
30-May-18 03:18 57.349088 -59.986434 79 36990ft 528kts
30-May-18 03:19 57.366918 -59.716823 79 36996ft 528kts
30-May-18 03:20 57.384221 -59.446200 80 36996ft 528kts
30-May-18 03:21 57.400896 -59.176102 80 36996ft 528kts
30-May-18 03:22 57.417054 -58.904749 80 36964ft 528kts
30-May-18 03:23 57.432584 -58.633998 81 36969ft 528kts
30-May-18 03:24 57.448189 -58.363098 81 36974ft 529kts
30-May-18 03:25 57.462076 -58.090531 82 36992ft 529kts
30-May-18 03:26 57.483376 -57.820904 77 36997ft 528kts
30-May-18 03:27 57.509083 -57.552881 78 36970ft 527kts
30-May-18 03:28 57.534477 -57.283804 76 36967ft 526kts
30-May-18 03:29 57.560348 -57.015840 78 36970ft 527kts
30-May-18 03:30 57.584726 -56.747001 79 36947ft 527kts
30-May-18 03:31 57.608493 -56.476930 79 36949ft 527kts
30-May-18 03:32 57.631595 -56.207376 80 36951ft 527kts
30-May-18 03:33 57.654115 -55.937569 80 36952ft 527kts
30-May-18 03:34 57.676153 -55.666234 80 36915ft 527kts
30-May-18 03:35 57.697524 -55.395653 81 36915ft 527kts
30-May-18 03:36 57.718367 -55.124186 81 36913ft 526kts
30-May-18 03:37 57.738551 -54.853430 82 36945ft 526kts
30-May-18 03:38 57.758155 -54.582394 82 36947ft 526kts
30-May-18 03:39 57.777226 -54.310389 83 36924ft 525kts
30-May-18 03:40 57.795629 -54.039373 83 36923ft 525kts
30-May-18 03:41 57.813452 -53.768130 84 36922ft 525kts
30-May-18 03:42 57.830766 -53.495495 84 36921ft 525kts
30-May-18 03:43 57.847430 -53.223677 84 36919ft 524kts
30-May-18 03:44 57.863508 -52.951716 85 36918ft 524kts
30-May-18 03:45 57.879038 -52.678854 86 36920ft 524kts
30-May-18 03:46 57.893925 -52.406820 86 36970ft 524kts
30-May-18 03:47 57.908216 -52.134731 86 36970ft 523kts
30-May-18 03:48 57.921956 -51.861967 87 36970ft 523kts
30-May-18 03:49 57.935081 -51.589868 87 36996ft 523kts
30-May-18 03:50 57.947656 -51.316670 87 37000ft 522kts
30-May-18 03:51 57.959584 -51.044753 88 36999ft 521kts
30-May-18 03:52 57.970913 -50.773184 89 36996ft 520kts
30-May-18 03:53 57.982434 -50.500859 89 36993ft 520kts
30-May-18 03:54 57.992185 -50.229544 90 36973ft 519kts
30-May-18 03:55 58.005581 -49.958967 81 36973ft 522kts
30-May-18 03:56 58.042353 -49.691971 78 36971ft 526kts
30-May-18 03:57 58.078800 -49.424973 79 36970ft 525kts
30-May-18 03:58 58.116332 -49.158699 79 36969ft 524kts
30-May-18 03:59 58.152616 -48.891241 79 36968ft 523kts
30-May-18 04:00 58.187819 -48.624328 80 36967ft 522kts
30-May-18 04:01 58.222440 -48.356707 80 36966ft 521kts
30-May-18 04:02 58.256354 -48.089680 80 36966ft 521kts
30-May-18 04:03 58.289806 -47.821362 80 36977ft 520kts
30-May-18 04:04 58.322569 -47.553583 81 36985ft 520kts
30-May-18 04:05 58.354721 -47.285734 81 36985ft 520kts
30-May-18 04:06 58.386419 -47.016494 81 36986ft 519kts
30-May-18 04:07 58.417383 -46.748245 81 36985ft 518kts
30-May-18 04:08 58.447745 -46.479894 81 36986ft 517kts
30-May-18 04:09 58.477617 -46.210418 82 36985ft 517kts
30-May-18 04:10 58.506845 -45.941225 82 36985ft 517kts
30-May-18 04:11 58.535473 -45.671944 82 36986ft 517kts
30-May-18 04:12 58.563631 -45.401296 82 36986ft 517kts
30-May-18 04:13 58.591122 -45.131184 82 37021ft 517kts
30-May-18 04:14 58.618099 -44.860038 83 37021ft 516kts
30-May-18 04:15 58.644375 -44.589971 83 37021ft 515kts
30-May-18 04:16 58.670088 -44.319362 83 37022ft 515kts
30-May-18 04:17 58.695300 -44.047687 83 37021ft 516kts
30-May-18 04:18 58.719849 -43.776651 84 37021ft 514kts
30-May-18 04:19 58.743875 -43.504612 84 37022ft 516kts
30-May-18 04:20 58.767401 -43.231369 84 37023ft 515kts
30-May-18 04:21 58.790226 -42.959239 84 37024ft 515kts
30-May-18 04:22 58.812457 -42.687011 85 37025ft 514kts
30-May-18 04:23 58.834147 -42.414065 85 37026ft 513kts
30-May-18 04:24 58.855204 -42.141488 85 37027ft 514kts
30-May-18 04:25 58.875725 -41.868081 85 37029ft 513kts
30-May-18 04:26 58.895586 -41.595461 85 37030ft 512kts
30-May-18 04:27 58.914868 -41.322692 85 37032ft 512kts
30-May-18 04:28 58.933610 -41.049088 86 37034ft 511kts
30-May-18 04:29 58.951711 -40.776205 86 37006ft 511kts
30-May-18 04:30 58.970004 -40.503516 86 37003ft 511kts
30-May-18 04:31 58.986558 -40.229325 86 37004ft 511kts
30-May-18 04:32 59.002180 -39.956035 88 37006ft 509kts
30-May-18 04:33 59.011341 -39.681590 89 37007ft 508kts
30-May-18 04:34 59.019753 -39.408524 89 37008ft 507kts
30-May-18 04:35 59.029755 -39.135584 88 37010ft 507kts
30-May-18 04:36 59.038731 -38.861702 89 37011ft 506kts
30-May-18 04:37 59.046631 -38.589188 89 37012ft 506kts
30-May-18 04:38 59.053894 -38.316637 89 37014ft 505kts
30-May-18 04:39 59.060587 -38.043579 89 37015ft 505kts
30-May-18 04:40 59.066667 -37.771908 89 37016ft 502kts
30-May-18 04:41 59.072175 -37.500835 90 37018ft 503kts
30-May-18 04:42 59.077125 -37.228914 90 37020ft 502kts
30-May-18 04:43 59.081486 -36.958332 90 37094ft 501kts
30-May-18 04:44 59.085292 -36.687027 90 37103ft 500kts
30-May-18 04:45 59.088516 -36.417019 90 37105ft 500kts
30-May-18 04:46 59.091178 -36.147223 90 37106ft 499kts
30-May-18 04:47 59.093280 -35.876701 90 37107ft 497kts
30-May-18 04:48 59.094815 -35.608404 90 37109ft 497kts
30-May-18 04:49 59.095795 -35.340164 90 37111ft 496kts
30-May-18 04:50 59.096219 -35.071485 90 37112ft 495kts
30-May-18 04:51 59.096093 -34.804149 90 37113ft 494kts
30-May-18 04:52 59.095418 -34.537353 91 37114ft 494kts
30-May-18 04:53 59.094192 -34.269963 91 37116ft 493kts
30-May-18 04:54 59.092406 -34.003533 91 37117ft 493kts
30-May-18 04:55 59.090106 -33.737321 91 37118ft 490kts
30-May-18 04:56 59.087270 -33.472934 91 37119ft 489kts
30-May-18 04:57 59.083904 -33.208817 92 37120ft 489kts
30-May-18 04:58 59.079992 -32.944477 92 37152ft 487kts
30-May-18 04:59 59.075569 -32.681598 92 37155ft 486kts
30-May-18 05:00 59.070617 -32.419159 92 37157ft 486kts
30-May-18 05:01 59.065128 -32.156165 92 37159ft 486kts
30-May-18 05:02 59.059134 -31.894393 93 37160ft 484kts
30-May-18 05:03 59.052638 -31.633763 93 37172ft 483kts
30-May-18 05:04 59.045600 -31.372469 94 37176ft 483kts
30-May-18 05:05 59.038067 -31.112265 94 37178ft 483kts
30-May-18 05:06 59.029995 -30.851603 94 37241ft 483kts
30-May-18 05:07 59.021673 -30.592092 94 37241ft 482kts
30-May-18 05:08 59.012957 -30.332802 95 37241ft 481kts
30-May-18 05:09 59.002861 -30.073354 95 37241ft 481kts
30-May-18 05:10 58.989067 -29.815860 99 37242ft 480kts
30-May-18 05:11 58.972124 -29.559946 99 37243ft 479kts
30-May-18 05:12 58.955007 -29.303379 98 37244ft 479kts
30-May-18 05:13 58.939699 -29.047236 99 37243ft 479kts
30-May-18 05:14 58.922687 -28.791928 100 37244ft 478kts
30-May-18 05:15 58.904929 -28.536552 100 37244ft 477kts
30-May-18 05:16 58.886718 -28.282510 100 37213ft 477kts
30-May-18 05:17 58.871193 -28.071502 100 37212ft 476kts
30-May-18 05:18 58.852068 -27.818019 101 37211ft 476kts
30-May-18 05:19 58.832516 -27.565737 101 37209ft 475kts
30-May-18 05:20 58.812414 -27.312997 101 37209ft 476kts
30-May-18 05:21 58.791860 -27.061050 102 37208ft 476kts
30-May-18 05:22 58.770803 -26.809254 102 37207ft 476kts
30-May-18 05:23 58.749211 -26.557242 102 37207ft 476kts
30-May-18 05:24 58.723529 -26.265097 103 37207ft 474kts
30-May-18 05:25 58.701054 -26.015717 103 37206ft 473kts
30-May-18 05:26 58.681902 -25.807558 103 37207ft 473kts
30-May-18 05:27 58.658526 -25.558590 103 37206ft 474kts
30-May-18 05:28 58.634649 -25.309742 103 37206ft 475kts
30-May-18 05:29 58.610157 -25.059878 103 37205ft 476kts
30-May-18 05:30 58.585225 -24.810775 104 37204ft 476kts
30-May-18 05:31 58.559751 -24.561454 104 37203ft 475kts
30-May-18 05:32 58.533918 -24.313666 104 37202ft 474kts
30-May-18 05:33 58.507671 -24.066822 104 37202ft 474kts
30-May-18 05:34 58.480876 -23.819668 104 37200ft 474kts
30-May-18 05:35 58.453677 -23.573532 104 37199ft 474kts
30-May-18 05:36 58.425944 -23.327216 104 37207ft 476kts
30-May-18 05:37 58.397567 -23.079799 105 37206ft 477kts
30-May-18 05:38 58.368737 -22.832986 105 37205ft 478kts
30-May-18 05:39 58.339420 -22.586454 105 37208ft 478kts
30-May-18 05:40 58.309535 -22.339562 105 37222ft 477kts
30-May-18 05:41 58.279314 -22.094192 105 37220ft 477kts
30-May-18 05:42 58.248665 -21.849601 105 37219ft 476kts
30-May-18 05:43 58.217433 -21.604473 105 37224ft 477kts
30-May-18 05:44 58.185772 -21.360102 105 37224ft 479kts
30-May-18 05:45 58.153420 -21.114459 105 37223ft 480kts
30-May-18 05:46 58.120639 -20.869576 105 37222ft 481kts
30-May-18 05:47 58.087333 -20.624690 105 37220ft 482kts
30-May-18 05:48 58.054095 -20.379060 106 37214ft 481kts
30-May-18 05:49 58.019375 -20.135431 106 37191ft 481kts
30-May-18 05:50 57.986828 -19.891151 103 37214ft 481kts
30-May-18 05:51 57.958615 -19.644076 103 37213ft 481kts
30-May-18 05:52 57.929345 -19.398702 103 37211ft 481kts
30-May-18 05:53 57.901577 -19.152830 103 37209ft 481kts
30-May-18 05:54 57.872393 -18.906811 103 37206ft 481kts
30-May-18 05:55 57.842471 -18.661722 103 37205ft 482kts
30-May-18 05:56 57.811839 -18.415553 103 37202ft 484kts
30-May-18 05:57 57.780746 -18.169961 103 37200ft 485kts
30-May-18 05:58 57.749109 -17.924269 104 37197ft 485kts
30-May-18 05:59 57.716907 -17.678320 104 37195ft 485kts
30-May-18 06:00 57.684371 -17.433880 104 37192ft 484kts
30-May-18 06:01 57.651411 -17.190237 104 37189ft 484kts
30-May-18 06:02 57.617906 -16.946441 105 37186ft 484kts
30-May-18 06:03 57.584036 -16.703846 105 37183ft 484kts
30-May-18 06:04 57.549556 -16.460678 105 37179ft 485kts
30-May-18 06:05 57.514698 -16.218590 105 37176ft 485kts
30-May-18 06:06 57.479370 -15.976912 105 37172ft 485kts
30-May-18 06:07 57.443453 -15.734860 106 37184ft 485kts
30-May-18 06:08 57.407214 -15.494190 106 37180ft 485kts
30-May-18 06:09 57.370555 -15.254254 106 37176ft 484kts
30-May-18 06:10 57.333355 -15.014297 107 37130ft 483kts
30-May-18 06:11 57.295887 -14.775917 107 37129ft 483kts
30-May-18 06:12 57.258001 -14.538259 107 37128ft 483kts
30-May-18 06:13 57.219532 -14.300258 107 37126ft 482kts
30-May-18 06:14 57.180786 -14.063794 108 37124ft 482kts
30-May-18 06:15 57.141438 -13.826868 108 37122ft 483kts
30-May-18 06:16 57.101766 -13.591140 108 37120ft 483kts
30-May-18 06:17 57.062244 -13.355469 108 37119ft 483kts
30-May-18 06:18 57.021082 -13.120185 109 37117ft 483kts
30-May-18 06:19 56.938565 -12.935185 146 37118ft 477kts
30-May-18 06:20 56.824589 -12.813018 137 37109ft 477kts
30-May-18 06:21 56.752299 -12.608922 117 37113ft 481kts
30-May-18 06:22 56.692762 -12.390643 117 37111ft 482kts
30-May-18 06:23 56.632740 -12.173123 117 37109ft 482kts
30-May-18 06:24 56.572617 -11.954883 118 37108ft 482kts
30-May-18 06:25 56.511664 -11.738535 118 37106ft 483kts
30-May-18 06:26 56.450038 -11.522152 118 37105ft 483kts
30-May-18 06:27 56.388248 -11.307241 118 37104ft 482kts
30-May-18 06:28 56.326073 -11.092968 118 37102ft 483kts
30-May-18 06:29 56.263324 -10.878696 118 37101ft 482kts
30-May-18 06:30 56.200399 -10.665771 118 37099ft 483kts
30-May-18 06:31 56.137564 -10.453349 118 37098ft 482kts
30-May-18 06:32 56.073779 -10.241539 119 37097ft 481kts
30-May-18 06:33 56.009739 -10.031890 119 37095ft 481kts
30-May-18 06:34 55.942203 -9.826195 121 37094ft 480kts
30-May-18 06:35 55.872912 -9.621926 121 37092ft 480kts
30-May-18 06:36 55.804065 -9.418318 120 37082ft 480kts
30-May-18 06:37 55.735696 -9.214218 121 37078ft 479kts
30-May-18 06:38 55.666641 -9.012340 121 37079ft 479kts
30-May-18 06:39 55.597222 -8.811455 121 37079ft 479kts
30-May-18 06:40 55.527253 -8.610701 121 37078ft 478kts
30-May-18 06:41 55.457344 -8.411779 122 37080ft 477kts
30-May-18 06:42 55.386988 -8.213192 122 37077ft 477kts
30-May-18 06:43 55.316531 -8.015932 122 37075ft 477kts
30-May-18 06:44 55.245851 -7.819633 123 37072ft 476kts
30-May-18 06:45 55.174697 -7.623592 123 37063ft 475kts
30-May-18 06:46 55.103639 -7.429362 123 37056ft 474kts
30-May-18 06:47 55.032392 -7.236151 123 37053ft 473kts
30-May-18 06:48 54.960680 -7.043191 123 37053ft 473kts
30-May-18 06:49 54.889073 -6.852019 123 37052ft 472kts
30-May-18 06:50 54.817214 -6.661636 123 37052ft 471kts
30-May-18 06:51 54.744986 -6.471753 123 37053ft 470kts
30-May-18 06:52 54.672927 -6.283740 124 37052ft 469kts
30-May-18 06:53 54.600540 -6.096305 124 37049ft 467kts
30-May-18 06:54 54.528337 -5.910742 124 37029ft 465kts
30-May-18 06:55 54.456098 -5.726465 124 37024ft 465kts
30-May-18 06:56 54.383308 -5.542147 124 37024ft 465kts
30-May-18 06:57 54.310468 -5.359083 124 37023ft 465kts
30-May-18 06:58 54.237372 -5.176669 124 37024ft 465kts
30-May-18 06:59 54.163745 -4.994278 124 37024ft 465kts
30-May-18 07:00 54.090271 -4.813526 124 37023ft 464kts
30-May-18 07:01 54.016726 -4.632643 124 37023ft 464kts
30-May-18 07:02 53.942586 -4.453927 124 37022ft 462kts
30-May-18 07:03 53.869226 -4.275560 123 37019ft 461kts
30-May-18 07:04 53.795793 -4.096681 123 37016ft 461kts
30-May-18 07:05 53.722665 -3.918695 124 36999ft 462kts
30-May-18 07:06 53.648660 -3.741908 124 36994ft 462kts
30-May-18 07:07 53.574341 -3.564851 123 36996ft 462kts
30-May-18 07:08 53.500420 -3.388409 124 36999ft 462kts
30-May-18 07:09 53.425427 -3.212774 124 37000ft 464kts
30-May-18 07:10 53.349315 -3.037702 125 37006ft 464kts
30-May-18 07:11 53.272044 -2.865218 125 36996ft 464kts
30-May-18 07:12 53.194398 -2.692512 126 37004ft 464kts
30-May-18 07:13 53.117684 -2.519861 123 36997ft 464kts
30-May-18 07:14 53.045050 -2.342407 127 36991ft 465kts
30-May-18 07:15 52.942337 -2.210747 146 37008ft 469kts
30-May-18 07:16 52.831344 -2.096989 146 37012ft 470kts
30-May-18 07:17 52.720625 -1.982282 145 37014ft 471kts
30-May-18 07:18 52.696494 -1.956944 146 37012ft 471kts
30-May-18 07:19 52.696494 -1.956944 146 37012ft 471kts
30-May-18 07:20 52.696494 -1.956944 146 37012ft 471kts
30-May-18 07:21 52.696494 -1.956944 146 37012ft 471kts
30-May-18 07:22 52.696494 -1.956944 146 37012ft 471kts
30-May-18 07:23 52.696494 -1.956944 146 37012ft 471kts
30-May-18 07:24 52.696494 -1.956944 146 37012ft 471kts
30-May-18 07:25 52.696494 -1.956944 146 37012ft 471kts
30-May-18 07:26 52.696494 -1.956944 146 37012ft 471kts
30-May-18 07:27 52.696494 -1.956944 146 37012ft 471kts
30-May-18 07:28 52.696494 -1.956944 146 37012ft 471kts
30-May-18 07:29 52.696494 -1.956944 146 37012ft 471kts
30-May-18 07:30 52.696494 -1.956944 146 37012ft 471kts
30-May-18 07:31 52.696494 -1.956944 146 37012ft 471kts
30-May-18 07:32 52.696494 -1.956944 146 37012ft 471kts
30-May-18 07:33 52.696494 -1.956944 146 37012ft 471kts
30-May-18 07:34 52.696494 -1.956944 146 37012ft 471kts
30-May-18 07:35 52.696494 -1.956944 146 37012ft 471kts
30-May-18 07:36 52.696494 -1.956944 146 37012ft 471kts
30-May-18 07:37 52.696494 -1.956944 146 37012ft 471kts
30-May-18 07:38 52.696494 -1.956944 146 37012ft 471kts
30-May-18 07:39 52.696494 -1.956944 146 37012ft 471kts
30-May-18 07:40 52.696494 -1.956944 146 37012ft 471kts
30-May-18 07:41 52.696494 -1.956944 146 37012ft 471kts
30-May-18 07:42 52.696494 -1.956944 146 37012ft 471kts
30-May-18 07:43 52.696494 -1.956944 146 37012ft 471kts
30-May-18 07:44 52.696494 -1.956944 146 37012ft 471kts
30-May-18 07:45 52.696494 -1.956944 146 37012ft 471kts
30-May-18 07:46 52.696494 -1.956944 146 37012ft 471kts
30-May-18 07:47 52.696494 -1.956944 146 37012ft 471kts
30-May-18 07:48 52.696494 -1.956944 146 37012ft 471kts
30-May-18 07:49 52.696494 -1.956944 146 37012ft 471kts
30-May-18 07:50 52.696494 -1.956944 146 37012ft 471kts
30-May-18 07:51 52.696494 -1.956944 146 37012ft 471kts
30-May-18 07:52 52.696494 -1.956944 146 37012ft 471kts
30-May-18 07:53 52.696494 -1.956944 146 37012ft 471kts
30-May-18 07:54 52.696494 -1.956944 146 37012ft 471kts
30-May-18 07:55 52.696494 -1.956944 146 37012ft 471kts
30-May-18 07:56 52.696494 -1.956944 146 37012ft 471kts
30-May-18 07:57 52.696494 -1.956944 146 37012ft 471kts
30-May-18 07:58 52.696494 -1.956944 146 37012ft 471kts
30-May-18 07:59 52.696494 -1.956944 146 37012ft 471kts
30-May-18 08:00 52.696494 -1.956944 146 37012ft 471kts
30-May-18 08:01 52.696494 -1.956944 146 37012ft 471kts
30-May-18 08:02 52.696494 -1.956944 146 37012ft 471kts
30-May-18 08:03 52.696494 -1.956944 146 37012ft 471kts
30-May-18 08:04 52.696494 -1.956944 146 37012ft 471kts
30-May-18 08:05 52.696494 -1.956944 146 37012ft 471kts
30-May-18 08:06 52.696494 -1.956944 146 37012ft 471kts
30-May-18 08:07 52.696494 -1.956944 146 37012ft 471kts
30-May-18 08:08 52.696494 -1.956944 146 37012ft 471kts
30-May-18 08:09 52.696494 -1.956944 146 37012ft 471kts
30-May-18 08:10 52.696494 -1.956944 146 37012ft 471kts
30-May-18 08:11 52.696494 -1.956944 146 37012ft 471kts
30-May-18 08:12 52.696494 -1.956944 146 37012ft 471kts
30-May-18 08:13 52.696494 -1.956944 146 37012ft 471kts
30-May-18 08:14 52.696494 -1.956944 146 37012ft 471kts
30-May-18 08:15 52.696494 -1.956944 146 37012ft 471kts
30-May-18 08:16 52.696494 -1.956944 146 37012ft 471kts
30-May-18 08:17 52.696494 -1.956944 146 37012ft 471kts
30-May-18 08:18 52.696494 -1.956944 146 37012ft 471kts
30-May-18 08:19 52.696494 -1.956944 146 37012ft 471kts
30-May-18 08:20 52.696494 -1.956944 146 37012ft 471kts
30-May-18 08:21 52.696494 -1.956944 146 37012ft 471kts
30-May-18 08:22 52.696494 -1.956944 146 37012ft 471kts
30-May-18 08:23 52.696494 -1.956944 146 37012ft 471kts
30-May-18 08:24 52.696494 -1.956944 146 37012ft 471kts
30-May-18 08:25 52.696494 -1.956944 146 37012ft 471kts
30-May-18 08:26 52.696494 -1.956944 146 37012ft 471kts
30-May-18 08:27 52.696494 -1.956944 146 37012ft 471kts
30-May-18 08:28 52.696494 -1.956944 146 37012ft 471kts
30-May-18 08:29 52.636809 -1.894913 146 37008ft 469kts
30-May-18 08:30 52.507894 -1.762340 146 36624ft 458kts
30-May-18 08:31 52.413817 -1.665620 146 34122ft 497kts
30-May-18 08:32 52.299243 -1.549658 147 31637ft 476kts
30-May-18 08:33 52.158377 -1.385854 137 28966ft 457kts
30-May-18 08:34 52.095005 -1.296077 138 27633ft 449kts
30-May-18 08:35 51.969966 -1.123290 139 24962ft 435kts
30-May-18 08:36 51.878970 -0.998100 139 22962ft 424kts
30-May-18 08:37 51.815602 -0.841915 116 20966ft 414kts
30-May-18 08:38 51.782183 -0.730659 117 19627ft 408kts
30-May-18 08:39 51.720783 -0.546175 130 17293ft 393kts
30-May-18 08:40 51.647132 -0.418729 133 15467ft 367kts
30-May-18 08:41 51.593065 -0.325009 133 15182ft 318kts
30-May-18 08:42 51.520659 -0.198713 133 14048ft 274kts
30-May-18 08:43 51.494892 -0.130086 104 13040ft 275kts
30-May-18 08:44 51.503366 0.011461 79 11639ft 261kts
30-May-18 08:45 51.504058 0.094784 134 11177ft 204kts
30-May-18 08:46 51.461450 0.050941 236 9042ft 197kts
30-May-18 08:47 51.456698 -0.019867 283 7471ft 206kts
30-May-18 08:48 51.475847 -0.105548 287 5613ft 201kts
30-May-18 08:49 51.478665 -0.197913 266 3914ft 162kts
30-May-18 08:50 51.478230 -0.271092 268 2171ft 166kts
30-May-18 08:51 51.478031 -0.329394 270 1347ft 147kts
30-May-18 08:52 51.477779 -0.393735 269 529ft 141kts
30-May-18 08:53 51.477626 -0.462768 270 96ft 94kts
30-May-18 08:54 51.474905 -0.472481 83 96ft 15kts
30-May-18 08:55 51.474383 -0.464000 178 96ft 0kts
30-May-18 08:56 51.474385 -0.464000 178 96ft 0kts
30-May-18 08:57 51.474384 -0.464000 177 96ft 0kts
30-May-18 08:58 51.474383 -0.463999 177 96ft 0kts
30-May-18 08:59 51.474383 -0.463999 177 96ft 0kts

Navigation Log

Ident Type
Flight plan parsing failed, navigation log unavailable